Wetterstation Tischlerei-Herzog
Wetterdaten: aktuell Mittwoch, 19.01.2022 15:09
Datum Zeit Temp. N Temp. S Temp. Htte Aussentemp. Temp. Bo Feuchte Htt Luftfeuchte Luftdruck Niederschl. Taupunkt
19.01.2022 15:09 3,3 C 5,8 C 4,5 C 3,3 C 1,8 C 30 % 41 % 1017,4 hPa 0,0 l/m -8,7 C
19.01.2022 14:09 2,9 C 5,9 C 3,6 C 2,9 C 1,8 C 32 % 41 % 1018,5 hPa 0,0 l/m -9,0 C
19.01.2022 13:09 2,8 C 4,1 C 3,7 C 2,8 C 1,7 C 32 % 44 % 1019,6 hPa 0,0 l/m -8,2 C
19.01.2022 12:09 3,7 C 7,4 C 4,7 C 3,7 C 1,6 C 32 % 35 % 1020,5 hPa 0,0 l/m -10,3 C
19.01.2022 11:09 2,6 C 8,4 C 3,5 C 2,6 C 1,2 C 36 % 38 % 1021,7 hPa 0,0 l/m -10,3 C
19.01.2022 10:09 1,0 C 1,0 C 1,1 C 1,0 C 0,8 C 50 % 58 % 1023,0 hPa 0,0 l/m -6,3 C
19.01.2022 09:09 0,5 C 0,5 C 0,8 C 0,5 C 0,9 C 56 % 61 % 1024,2 hPa 0,0 l/m -6,1 C
19.01.2022 08:09 -0,8 C -0,3 C 0,0 C -0,8 C 1,0 C 61 % 67 % 1025,4 hPa 0,0 l/m -6,1 C
19.01.2022 07:09 -0,7 C -0,1 C 0,2 C -0,7 C 1,1 C 59 % 66 % 1025,4 hPa 0,0 l/m -6,2 C
19.01.2022 06:09 0,4 C 0,4 C 0,7 C 0,4 C 1,1 C 58 % 66 % 1026,3 hPa 0,0 l/m -5,2 C
19.01.2022 05:09 0,6 C 0,6 C 1,0 C 0,6 C 1,2 C 55 % 65 % 1027,3 hPa 0,0 l/m -5,2 C
19.01.2022 04:09 1,1 C 1,0 C 1,4 C 1,0 C 1,2 C 52 % 61 % 1028,3 hPa 0,0 l/m -5,7 C
19.01.2022 03:09 1,5 C 1,6 C 1,9 C 1,5 C 1,2 C 51 % 58 % 1029,2 hPa 0,0 l/m -5,8 C
19.01.2022 02:09 2,0 C 2,2 C 2,5 C 2,0 C 1,2 C 52 % 57 % 1030,2 hPa 0,0 l/m -5,6 C
19.01.2022 01:09 2,3 C 2,4 C 2,6 C 2,3 C 1,2 C 60 % 66 % 1031,2 hPa 0,0 l/m -3,4 C
19.01.2022 00:09 2,3 C 2,6 C 2,7 C 2,3 C 1,2 C 59 % 67 % 1032,2 hPa 0,0 l/m -3,2 C
18.01.2022 23:09 2,4 C 2,7 C 2,8 C 2,4 C 1,2 C 59 % 66 % 1032,2 hPa 0,0 l/m -3,3 C
18.01.2022 22:03 2,6 C 3,0 C 2,9 C 2,6 C 1,3 C 58 % 65 % 1032,2 hPa 0,0 l/m -3,3 C
18.01.2022 21:03 2,7 C 3,0 C 3,1 C 2,7 C 1,3 C 57 % 65 % 1033,2 hPa 0,0 l/m -3,2 C
18.01.2022 20:03 2,7 C 3,1 C 3,1 C 2,7 C 1,3 C 56 % 64 % 1033,2 hPa 0,0 l/m -3,4 C
18.01.2022 19:03 2,9 C 3,3 C 3,3 C 2,9 C 1,3 C 55 % 63 % 1034,2 hPa 0,0 l/m -3,4 C
18.01.2022 18:03 3,0 C 3,4 C 3,6 C 3,0 C 1,4 C 54 % 61 % 1033,2 hPa 0,0 l/m -3,8 C
18.01.2022 17:03 3,4 C 3,8 C 4,0 C 3,4 C 1,3 C 51 % 58 % 1034,1 hPa 0,0 l/m -4,1 C
18.01.2022 16:03 3,9 C 4,2 C 4,4 C 3,9 C 1,3 C 48 % 55 % 1034,1 hPa 0,0 l/m -4,3 C
_ Min-Zeit 07:59 07:54 08:04 07:59 09:14 14:44 11:49 14:34 - 11:49
Minimum _ -0,9 C -0,4 C 0,0 C -0,9 C 0,8 C 30 % 31 % 1017,4 hPa - -11,8 C
_ Max-Zeit 13:59 10:59 11:59 13:59 13:54 08:24 08:24 19:13 16:03 23:19
Maximum _ 4,0 C 11,0 C 4,9 C 4,0 C 1,8 C 63 % 68 % 1034,3 hPa 0,0 l/m -3,0 C
Durchschnitt _ 2,2 C 3,0 C 2,7 C 2,1 C 1,3 C 51 % 58 % 1028,4 hPa #0,0 l/m -5,5 C
Tischlerei Herzog